Victor Amor — EA2955 — position and weather

sailwx.info

Track history (hours):
 
Tides and Currents Weather Stations Pressure Air Temp Water Temp Dewpoint Dewpoint Depression Visibility Wind Speed Wind Dir Waves Ship Positions

Victor Amor

Last reported at 2017-Sep-22 00:42 UTC. Time now 2017-Nov-17 21:31 UTC.
Position N 41°07' E 001°38'.
Warning: this ship's position is 56 days out of date.

Length 18 m.

Type: Fishing. MMSI: 224176442.

Date/timePositionNaut miles runAvg speedWind from/ knotsBaromVisibWave heightAir tempDewpointWater temp
2017-Sep-22 00:42N 41°07' E 001°38'2 7.6
2017-Sep-22 00:24N 41°06' E 001°40'3 7.6
2017-Sep-22 00:00N 41°04' E 001°44'14 1.6
2017-Sep-21 15:10N 40°54' E 001°56'0 1.2
2017-Sep-21 14:52N 40°53' E 001°56'0 1.1
2017-Sep-21 14:28N 40°53' E 001°56'5 1.5
2017-Sep-21 10:49N 40°51' E 002°03'1 0.8
2017-Sep-21 09:41N 40°50' E 002°04'0 1.2
2017-Sep-21 09:22N 40°50' E 002°04'2 1.2
2017-Sep-21 08:00N 40°51' E 002°02'4 0.1
2017-Sep-19 15:55N 40°47' E 002°04'4 7.7
2017-Sep-19 15:23N 40°51' E 002°04'16 0.9
2017-Sep-18 22:03N 41°04' E 001°50'1 7.7
2017-Sep-18 21:57N 41°04' E 001°49'3 7.7
2017-Sep-18 21:30N 41°05' E 001°44'4 7.6
2017-Sep-18 20:57N 41°05' E 001°39'17 0.8
2017-Sep-18 00:42N 40°56' E 001°58'2 7.2
2017-Sep-18 00:23N 40°55' E 001°60'1 0.4
2017-Sep-17 21:09N 40°53' E 002°00'2 0.9
2017-Sep-17 19:23N 40°53' E 002°02'0 1.0
2017-Sep-17 18:58N 40°53' E 002°03'1 1.2
2017-Sep-17 18:26N 40°53' E 002°04'1 1.4
2017-Sep-17 17:45N 40°53' E 002°05'0 0.8
2017-Sep-17 17:30N 40°53' E 002°05'1 1.3
2017-Sep-17 16:59N 40°53' E 002°06'1 1.1
2017-Sep-17 16:25N 40°53' E 002°07'3 0.8
2017-Sep-17 12:03N 40°56' E 002°07'0 1.5
2017-Sep-17 11:44N 40°57' E 002°07'1 0.0
2017-Sep-16 12:11N 40°57' E 002°06'2 1.1
2017-Sep-16 10:42N 40°56' E 002°06'0 1.3
2017-Sep-16 10:20N 40°55' E 002°06'1 1.2
2017-Sep-16 09:29N 40°54' E 002°06'1 1.0
2017-Sep-16 08:58N 40°54' E 002°06'2 0.2
2017-Sep-16 00:15N 40°52' E 002°06'4 7.7
2017-Sep-15 23:43N 40°52' E 002°11'18 6.4
2017-Sep-15 20:50N 41°03' E 001°52'3 8.1
2017-Sep-15 20:26N 41°03' E 001°48'6 0.1
2017-Sep-14 05:50N 41°05' E 001°41'19 7.6
2017-Sep-14 03:21N 40°57' E 002°04'3 7.5
2017-Sep-14 02:58N 40°55' E 002°06'4 8.2
2017-Sep-14 02:30N 40°52' E 002°10'3 6.8
2017-Sep-14 02:00N 40°51' E 002°14'4 7.3
2017-Sep-14 01:25N 40°55' E 002°12'9 4.2
2017-Sep-13 23:20N 41°00' E 002°03'0 1.4
2017-Sep-13 23:00N 41°01' E 002°04'1 1.0
2017-Sep-13 22:26N 41°00' E 002°03'1 0.8
2017-Sep-13 21:29N 40°59' E 002°03'0 0.7
2017-Sep-13 20:58N 40°59' E 002°03'0 0.7
2017-Sep-13 20:30N 40°59' E 002°04'0 0.6
2017-Sep-13 20:00N 40°58' E 002°04'0 1.0
2017-Sep-13 19:29N 40°58' E 002°04'1 1.0
2017-Sep-13 18:50N 40°58' E 002°05'0 0.8
2017-Sep-13 18:30N 40°57' E 002°05'1 1.1
2017-Sep-13 17:54N 40°57' E 002°06'0 0.5
2017-Sep-13 17:30N 40°57' E 002°06'1 1.0
2017-Sep-13 16:58N 40°56' E 002°06'1 1.3
2017-Sep-13 16:25N 40°56' E 002°06'1 1.2
2017-Sep-13 15:50N 40°55' E 002°06'0 1.0
2017-Sep-13 15:29N 40°54' E 002°06'0 0.9
2017-Sep-13 14:59N 40°54' E 002°06'1 1.7
2017-Sep-13 14:30N 40°53' E 002°06'1 1.0
2017-Sep-13 13:59N 40°53' E 002°06'1 1.1
2017-Sep-13 13:28N 40°52' E 002°06'1 1.1
2017-Sep-13 13:00N 40°52' E 002°06'0 0.5
2017-Sep-13 12:27N 40°51' E 002°06'0 0.2
2017-Sep-13 11:56N 40°51' E 002°06'0 0.0
2017-Sep-13 11:28N 40°51' E 002°06'1 2.1
2017-Sep-13 11:00N 40°51' E 002°05'4 7.8
2017-Sep-13 10:30N 40°47' E 002°04'3 4.9
2017-Sep-13 09:59N 40°44' E 002°04'0 0.1
2017-Sep-13 09:30N 40°44' E 002°04'0 0.7
2017-Sep-13 08:59N 40°44' E 002°04'0 0.9
2017-Sep-13 08:29N 40°44' E 002°03'1 1.1
2017-Sep-13 07:58N 40°44' E 002°02'0 1.1
2017-Sep-13 07:30N 40°44' E 002°02'0 0.9
2017-Sep-13 07:00N 40°44' E 002°01'1 1.2
2017-Sep-13 06:30N 40°45' E 002°00'1 1.2
2017-Sep-13 06:00N 40°45' E 001°60'1 1.2
2017-Sep-13 05:30N 40°45' E 001°59'1 1.1
2017-Sep-13 05:00N 40°46' E 001°59'1 1.4
2017-Sep-13 04:28N 40°46' E 001°58'1 0.9
2017-Sep-13 03:51N 40°47' E 001°57'0 0.9
2017-Sep-13 03:22N 40°47' E 001°57'0 0.5
2017-Sep-13 03:00N 40°47' E 001°57'0 0.8
2017-Sep-13 02:24N 40°47' E 001°57'0 0.6
2017-Sep-13 01:49N 40°48' E 001°56'0 0.8
2017-Sep-13 01:27N 40°48' E 001°56'0 0.9
2017-Sep-13 01:00N 40°48' E 001°56'0 0.6
2017-Sep-13 00:21N 40°49' E 001°56'0 1.1
2017-Sep-12 23:59N 40°49' E 001°56'0 0.6
2017-Sep-12 23:29N 40°49' E 001°56'0 0.2
2017-Sep-12 23:00N 40°50' E 001°56'0 0.1
2017-Sep-12 22:30N 40°50' E 001°56'4 7.8
2017-Sep-12 21:59N 40°49' E 002°01'1 1.8
2017-Sep-12 21:28N 40°49' E 002°02'0 0.8
2017-Sep-12 20:59N 40°50' E 002°02'0 0.9
2017-Sep-12 20:29N 40°50' E 002°02'0 0.6
2017-Sep-12 19:50N 40°50' E 002°02'0 1.2
2017-Sep-12 19:30N 40°51' E 002°02'0 0.5
2017-Sep-12 18:58N 40°51' E 002°02'1 0.1
2017-Sep-12 09:19N 40°50' E 002°03'2 5.9
2017-Sep-12 09:00N 40°48' E 002°04'0 0.8
2017-Sep-12 08:29N 40°48' E 002°04'0 0.4
2017-Sep-12 07:48N 40°48' E 002°04'0 0.5
2017-Sep-12 07:29N 40°48' E 002°04'0 0.2
2017-Sep-12 06:59N 40°48' E 002°04'0 0.8
2017-Sep-12 06:30N 40°47' E 002°04'3 7.0
2017-Sep-12 06:00N 40°49' E 002°08'4 7.2
2017-Sep-12 05:30N 40°53' E 002°09'18 6.4
2017-Sep-12 02:46N 41°02' E 001°49'2 8.3
2017-Sep-12 02:29N 41°02' E 001°46'4 8.3
2017-Sep-12 01:57N 41°03' E 001°40'4 8.4
2017-Sep-12 01:26N 41°04' E 001°35'  
Track history (hours):
 
Tides and Currents Weather Stations Pressure Air Temp Water Temp Dewpoint Dewpoint Depression Visibility Wind Speed Wind Dir Waves Ship Positions

Victor Amor

Last reported at 2017-Sep-22 00:42 UTC. Time now 2017-Nov-17 21:31 UTC.
Position N 41°07' E 001°38'.
Warning: this ship's position is 56 days out of date.

Length 18 m.

Type: Fishing. MMSI: 224176442.

Date/timePositionNaut miles runAvg speedWind from/ knotsBaromVisibWave heightAir tempDewpointWater temp
2017-Sep-22 00:42N 41°07' E 001°38'2 7.6
2017-Sep-22 00:24N 41°06' E 001°40'3 7.6
2017-Sep-22 00:00N 41°04' E 001°44'14 1.6
2017-Sep-21 15:10N 40°54' E 001°56'0 1.2
2017-Sep-21 14:52N 40°53' E 001°56'0 1.1
2017-Sep-21 14:28N 40°53' E 001°56'5 1.5
2017-Sep-21 10:49N 40°51' E 002°03'1 0.8
2017-Sep-21 09:41N 40°50' E 002°04'0 1.2
2017-Sep-21 09:22N 40°50' E 002°04'2 1.2
2017-Sep-21 08:00N 40°51' E 002°02'4 0.1
2017-Sep-19 15:55N 40°47' E 002°04'4 7.7
2017-Sep-19 15:23N 40°51' E 002°04'16 0.9
2017-Sep-18 22:03N 41°04' E 001°50'1 7.7
2017-Sep-18 21:57N 41°04' E 001°49'3 7.7
2017-Sep-18 21:30N 41°05' E 001°44'4 7.6
2017-Sep-18 20:57N 41°05' E 001°39'17 0.8
2017-Sep-18 00:42N 40°56' E 001°58'2 7.2
2017-Sep-18 00:23N 40°55' E 001°60'1 0.4
2017-Sep-17 21:09N 40°53' E 002°00'2 0.9
2017-Sep-17 19:23N 40°53' E 002°02'0 1.0
2017-Sep-17 18:58N 40°53' E 002°03'1 1.2
2017-Sep-17 18:26N 40°53' E 002°04'1 1.4
2017-Sep-17 17:45N 40°53' E 002°05'0 0.8
2017-Sep-17 17:30N 40°53' E 002°05'1 1.3
2017-Sep-17 16:59N 40°53' E 002°06'1 1.1
2017-Sep-17 16:25N 40°53' E 002°07'3 0.8
2017-Sep-17 12:03N 40°56' E 002°07'0 1.5
2017-Sep-17 11:44N 40°57' E 002°07'1 0.0
2017-Sep-16 12:11N 40°57' E 002°06'2 1.1
2017-Sep-16 10:42N 40°56' E 002°06'0 1.3
2017-Sep-16 10:20N 40°55' E 002°06'1 1.2
2017-Sep-16 09:29N 40°54' E 002°06'1 1.0
2017-Sep-16 08:58N 40°54' E 002°06'2 0.2
2017-Sep-16 00:15N 40°52' E 002°06'4 7.7
2017-Sep-15 23:43N 40°52' E 002°11'18 6.4
2017-Sep-15 20:50N 41°03' E 001°52'3 8.1
2017-Sep-15 20:26N 41°03' E 001°48'6 0.1
2017-Sep-14 05:50N 41°05' E 001°41'19 7.6
2017-Sep-14 03:21N 40°57' E 002°04'3 7.5
2017-Sep-14 02:58N 40°55' E 002°06'4 8.2
2017-Sep-14 02:30N 40°52' E 002°10'3 6.8
2017-Sep-14 02:00N 40°51' E 002°14'4 7.3
2017-Sep-14 01:25N 40°55' E 002°12'9 4.2
2017-Sep-13 23:20N 41°00' E 002°03'0 1.4
2017-Sep-13 23:00N 41°01' E 002°04'1 1.0
2017-Sep-13 22:26N 41°00' E 002°03'1 0.8
2017-Sep-13 21:29N 40°59' E 002°03'0 0.7
2017-Sep-13 20:58N 40°59' E 002°03'0 0.7
2017-Sep-13 20:30N 40°59' E 002°04'0 0.6
2017-Sep-13 20:00N 40°58' E 002°04'0 1.0
2017-Sep-13 19:29N 40°58' E 002°04'1 1.0
2017-Sep-13 18:50N 40°58' E 002°05'0 0.8
2017-Sep-13 18:30N 40°57' E 002°05'1 1.1
2017-Sep-13 17:54N 40°57' E 002°06'0 0.5
2017-Sep-13 17:30N 40°57' E 002°06'1 1.0
2017-Sep-13 16:58N 40°56' E 002°06'1 1.3
2017-Sep-13 16:25N 40°56' E 002°06'1 1.2
2017-Sep-13 15:50N 40°55' E 002°06'0 1.0
2017-Sep-13 15:29N 40°54' E 002°06'0 0.9
2017-Sep-13 14:59N 40°54' E 002°06'1 1.7
2017-Sep-13 14:30N 40°53' E 002°06'1 1.0
2017-Sep-13 13:59N 40°53' E 002°06'1 1.1
2017-Sep-13 13:28N 40°52' E 002°06'1 1.1
2017-Sep-13 13:00N 40°52' E 002°06'0 0.5
2017-Sep-13 12:27N 40°51' E 002°06'0 0.2
2017-Sep-13 11:56N 40°51' E 002°06'0 0.0
2017-Sep-13 11:28N 40°51' E 002°06'1 2.1
2017-Sep-13 11:00N 40°51' E 002°05'4 7.8
2017-Sep-13 10:30N 40°47' E 002°04'3 4.9
2017-Sep-13 09:59N 40°44' E 002°04'0 0.1
2017-Sep-13 09:30N 40°44' E 002°04'0 0.7
2017-Sep-13 08:59N 40°44' E 002°04'0 0.9
2017-Sep-13 08:29N 40°44' E 002°03'1 1.1
2017-Sep-13 07:58N 40°44' E 002°02'0 1.1
2017-Sep-13 07:30N 40°44' E 002°02'0 0.9
2017-Sep-13 07:00N 40°44' E 002°01'1 1.2
2017-Sep-13 06:30N 40°45' E 002°00'1 1.2
2017-Sep-13 06:00N 40°45' E 001°60'1 1.2
2017-Sep-13 05:30N 40°45' E 001°59'1 1.1
2017-Sep-13 05:00N 40°46' E 001°59'1 1.4
2017-Sep-13 04:28N 40°46' E 001°58'1 0.9
2017-Sep-13 03:51N 40°47' E 001°57'0 0.9
2017-Sep-13 03:22N 40°47' E 001°57'0 0.5
2017-Sep-13 03:00N 40°47' E 001°57'0 0.8
2017-Sep-13 02:24N 40°47' E 001°57'0 0.6
2017-Sep-13 01:49N 40°48' E 001°56'0 0.8
2017-Sep-13 01:27N 40°48' E 001°56'0 0.9
2017-Sep-13 01:00N 40°48' E 001°56'0 0.6
2017-Sep-13 00:21N 40°49' E 001°56'0 1.1
2017-Sep-12 23:59N 40°49' E 001°56'0 0.6
2017-Sep-12 23:29N 40°49' E 001°56'0 0.2
2017-Sep-12 23:00N 40°50' E 001°56'0 0.1
2017-Sep-12 22:30N 40°50' E 001°56'4 7.8
2017-Sep-12 21:59N 40°49' E 002°01'1 1.8
2017-Sep-12 21:28N 40°49' E 002°02'0 0.8
2017-Sep-12 20:59N 40°50' E 002°02'0 0.9
2017-Sep-12 20:29N 40°50' E 002°02'0 0.6
2017-Sep-12 19:50N 40°50' E 002°02'0 1.2
2017-Sep-12 19:30N 40°51' E 002°02'0 0.5
2017-Sep-12 18:58N 40°51' E 002°02'1 0.1
2017-Sep-12 09:19N 40°50' E 002°03'2 5.9
2017-Sep-12 09:00N 40°48' E 002°04'0 0.8
2017-Sep-12 08:29N 40°48' E 002°04'0 0.4
2017-Sep-12 07:48N 40°48' E 002°04'0 0.5
2017-Sep-12 07:29N 40°48' E 002°04'0 0.2
2017-Sep-12 06:59N 40°48' E 002°04'0 0.8
2017-Sep-12 06:30N 40°47' E 002°04'3 7.0
2017-Sep-12 06:00N 40°49' E 002°08'4 7.2
2017-Sep-12 05:30N 40°53' E 002°09'18 6.4
2017-Sep-12 02:46N 41°02' E 001°49'2 8.3
2017-Sep-12 02:29N 41°02' E 001°46'4 8.3
2017-Sep-12 01:57N 41°03' E 001°40'4 8.4
2017-Sep-12 01:26N 41°04' E 001°35'  

Dump ship's entire track history